Time;durP1;ratioP1;P1;durP2;ratioP2;P2;SDS_P1;SDS_P2;PMS_P1;PMS_P2;Temp;Humidity;BMP_temperature;BMP_pressure;BME280_temperature;BME280_humidity;BME280_pressure;Samples;Min_cycle;Max_cycle;Signal;HPM_P1;HPM_P2
2021/09/27 00:01:08;;;;;;;16.37;13.87;;;16.30;1.00;;;;;;4954282;29;20215;-63
2021/09/27 00:03:36;;;;;;;18.63;13.47;;;16.30;1.00;;;;;;4953935;29;20276;-63
2021/09/27 00:06:04;;;;;;;17.63;12.90;;;16.30;1.00;;;;;;4953770;29;20204;-63
2021/09/27 00:08:31;;;;;;;17.87;13.27;;;16.30;1.00;;;;;;4954154;29;20284;-63
2021/09/27 00:11:02;;;;;;;17.10;12.87;;;16.20;99.90;;;;;;4953320;28;20213;-63
2021/09/27 00:13:34;;;;;;;15.67;13.47;;;16.20;99.90;;;;;;4954300;29;21089;-63
2021/09/27 00:16:02;;;;;;;16.40;13.07;;;16.20;99.90;;;;;;4953841;29;20209;-63
2021/09/27 00:18:29;;;;;;;14.43;12.70;;;16.20;99.90;;;;;;4953971;29;20280;-63
2021/09/27 00:20:59;;;;;;;15.10;12.80;;;16.20;99.90;;;;;;4953990;29;20256;-63
2021/09/27 00:23:28;;;;;;;14.60;13.00;;;16.20;99.90;;;;;;4954038;29;20220;-63
2021/09/27 00:25:54;;;;;;;17.80;13.30;;;16.10;99.90;;;;;;4953726;29;20745;-63
2021/09/27 00:28:21;;;;;;;16.23;12.47;;;16.10;99.90;;;;;;4953935;29;20280;-63
2021/09/27 00:30:49;;;;;;;16.17;12.27;;;16.10;99.90;;;;;;4954020;29;20633;-63
2021/09/27 00:33:18;;;;;;;16.63;12.40;;;16.10;99.90;;;;;;4953908;29;20702;-63
2021/09/27 00:35:45;;;;;;;16.93;12.57;;;16.00;99.90;;;;;;4953319;29;20725;-63
2021/09/27 00:38:13;;;;;;;14.00;11.87;;;16.10;99.90;;;;;;4953922;29;20306;-63
2021/09/27 00:40:42;;;;;;;16.47;12.33;;;16.10;99.90;;;;;;4953877;29;20212;-63
2021/09/27 00:43:10;;;;;;;14.97;12.17;;;16.10;99.90;;;;;;4953890;29;20264;-63
2021/09/27 00:45:45;;;;;;;17.90;12.40;;;16.00;99.90;;;;;;4953372;29;20208;-63
2021/09/27 00:48:13;;;;;;;13.67;12.27;;;16.00;99.90;;;;;;4954136;29;20228;-62
2021/09/27 00:50:45;;;;;;;15.80;11.80;;;16.00;99.90;;;;;;4953750;29;20213;-63
2021/09/27 00:53:18;;;;;;;14.20;11.53;;;16.00;99.90;;;;;;4954266;29;20213;-63
2021/09/27 00:55:44;;;;;;;14.20;11.60;;;15.90;99.90;;;;;;4953707;29;20260;-63
2021/09/27 00:58:14;;;;;;;15.47;11.50;;;15.90;99.90;;;;;;4953623;29;20245;-63
2021/09/27 01:00:40;;;;;;;16.13;12.13;;;15.80;99.90;;;;;;4954027;29;20628;-63
2021/09/27 01:03:08;;;;;;;13.77;11.30;;;15.80;1.00;;;;;;4953372;29;20232;-63
2021/09/27 01:05:38;;;;;;;13.23;11.37;;;15.80;1.00;;;;;;4953196;29;20674;-63
2021/09/27 01:08:19;;;;;;;14.77;11.20;;;15.70;1.00;;;;;;4953557;29;20224;-63
2021/09/27 01:11:02;;;;;;;14.07;11.27;;;15.70;1.00;;;;;;4953642;29;20209;-63
2021/09/27 01:13:46;;;;;;;16.70;11.90;;;15.70;1.00;;;;;;4953456;29;20674;-63
2021/09/27 01:16:20;;;;;;;14.13;11.63;;;15.70;1.00;;;;;;4953298;29;20221;-63
2021/09/27 01:19:05;;;;;;;15.07;11.97;;;15.70;1.00;;;;;;4953554;29;20264;-63
2021/09/27 01:21:40;;;;;;;13.80;10.93;;;15.60;1.00;;;;;;4955037;28;20270;-63
2021/09/27 01:24:44;;;;;;;13.37;11.67;;;15.60;1.00;;;;;;4956871;29;20221;-63
2021/09/27 01:27:46;;;;;;;15.77;11.63;;;15.60;1.00;;;;;;4936586;29;20209;-63
2021/09/27 01:30:42;;;;;;;13.73;11.47;;;15.60;1.00;;;;;;4957124;29;20288;-63
2021/09/27 01:33:14;;;;;;;16.80;12.30;;;15.50;1.00;;;;;;4956791;29;20685;-63
2021/09/27 01:35:49;;;;;;;17.23;11.93;;;15.50;1.00;;;;;;4956607;29;20209;-63
2021/09/27 01:38:28;;;;;;;16.47;11.53;;;15.50;1.00;;;;;;4956877;29;20228;-63
2021/09/27 01:41:08;;;;;;;16.87;11.40;;;15.50;1.00;;;;;;4957026;29;20748;-63
2021/09/27 01:43:40;;;;;;;14.70;11.43;;;15.50;1.00;;;;;;4956793;29;20275;-63
2021/09/27 01:46:13;;;;;;;15.83;12.13;;;15.50;1.00;;;;;;4956616;29;20276;-63
2021/09/27 01:48:49;;;;;;;13.07;11.70;;;15.60;1.00;;;;;;4956862;29;20284;-63
2021/09/27 01:51:24;;;;;;;17.37;10.73;;;15.60;1.00;;;;;;4956572;29;20283;-63
2021/09/27 01:53:56;;;;;;;15.30;11.10;;;15.60;1.00;;;;;;4956772;29;20256;-62
2021/09/27 01:56:30;;;;;;;13.47;11.27;;;15.70;1.00;;;;;;4956286;29;20284;-62
2021/09/27 01:59:02;;;;;;;12.43;10.80;;;15.70;1.00;;;;;;4956276;29;20233;-63
2021/09/27 02:01:34;;;;;;;14.03;11.10;;;15.70;1.00;;;;;;4956258;29;20259;-63
2021/09/27 02:04:07;;;;;;;13.87;10.10;;;15.80;1.00;;;;;;4956487;29;20237;-63
2021/09/27 02:06:40;;;;;;;18.10;10.80;;;15.80;1.00;;;;;;4955920;29;20221;-63
2021/09/27 02:09:10;;;;;;;15.37;10.77;;;15.80;1.00;;;;;;4956203;29;20797;-63
2021/09/27 02:11:40;;;;;;;15.93;11.30;;;15.70;99.90;;;;;;4955981;29;20205;-63
2021/09/27 02:14:12;;;;;;;13.47;10.67;;;15.70;99.90;;;;;;4956043;29;20201;-63
2021/09/27 02:16:46;;;;;;;15.40;11.07;;;15.70;99.90;;;;;;4955764;29;20220;-63
2021/09/27 02:19:21;;;;;;;14.90;11.17;;;15.70;99.90;;;;;;4956197;29;20232;-63
2021/09/27 02:21:53;;;;;;;17.30;11.40;;;15.60;99.90;;;;;;4955991;29;20256;-63
2021/09/27 02:24:32;;;;;;;15.90;11.00;;;15.60;1.00;;;;;;4955814;29;20229;-63
2021/09/27 02:27:01;;;;;;;14.90;11.77;;;15.60;1.00;;;;;;4955784;29;20212;-63
2021/09/27 02:29:29;;;;;;;15.03;11.30;;;15.60;1.00;;;;;;4956015;29;20300;-63
2021/09/27 02:32:06;;;;;;;14.10;11.53;;;15.60;1.00;;;;;;4956049;28;20267;-63
2021/09/27 02:34:43;;;;;;;13.83;10.97;;;15.60;1.00;;;;;;4955206;29;20232;-63
2021/09/27 02:37:17;;;;;;;14.73;11.07;;;15.70;1.00;;;;;;4955515;29;20212;-63
2021/09/27 02:39:49;;;;;;;12.77;10.80;;;15.70;1.00;;;;;;4955955;29;20213;-63
2021/09/27 02:42:25;;;;;;;15.83;11.93;;;15.70;1.00;;;;;;4955769;29;20674;-63
2021/09/27 02:44:52;;;;;;;15.23;10.87;;;15.70;1.00;;;;;;4955371;29;20287;-63
2021/09/27 02:47:24;;;;;;;16.53;10.93;;;15.60;1.00;;;;;;4955516;29;20229;-63
2021/09/27 02:49:57;;;;;;;15.50;11.03;;;15.60;1.00;;;;;;4955873;29;20213;-63
2021/09/27 02:52:24;;;;;;;15.03;11.33;;;15.50;1.00;;;;;;4955882;29;20259;-62
2021/09/27 02:54:54;;;;;;;18.47;12.67;;;15.50;1.00;;;;;;4955375;29;20213;-63
2021/09/27 02:57:45;;;;;;;16.80;12.27;;;15.50;1.00;;;;;;4955512;29;20311;-63
2021/09/27 03:00:16;;;;;;;16.97;12.40;;;15.40;1.00;;;;;;4955165;29;20670;-63
2021/09/27 03:02:54;;;;;;;16.03;12.60;;;15.50;1.00;;;;;;4955321;29;20239;-63
2021/09/27 03:05:32;;;;;;;15.83;12.27;;;15.50;1.00;;;;;;4954967;29;20201;-63
2021/09/27 03:08:21;;;;;;;14.33;11.73;;;15.50;1.00;;;;;;4955069;29;20229;-63
2021/09/27 03:11:00;;;;;;;13.07;11.67;;;15.60;1.00;;;;;;4955515;29;20209;-63
2021/09/27 03:13:36;;;;;;;13.17;11.47;;;15.70;1.00;;;;;;4955061;29;20208;-63
2021/09/27 03:16:27;;;;;;;13.53;10.67;;;15.70;1.00;;;;;;4954897;29;20255;-63
2021/09/27 03:19:12;;;;;;;14.57;11.07;;;15.80;1.00;;;;;;4953565;29;20233;-63
2021/09/27 03:21:47;;;;;;;16.27;11.30;;;15.80;1.00;;;;;;4954989;29;20217;-63
2021/09/27 03:24:27;;;;;;;15.10;12.37;;;15.80;1.00;;;;;;4954756;29;20227;-63
2021/09/27 03:27:02;;;;;;;13.80;10.93;;;15.90;1.00;;;;;;4954444;29;20753;-63
2021/09/27 03:29:40;;;;;;;14.30;11.20;;;15.90;1.00;;;;;;4955016;29;20275;-63
2021/09/27 03:32:25;;;;;;;12.10;10.50;;;15.90;1.00;;;;;;4954770;29;20271;-63
2021/09/27 03:34:59;;;;;;;14.20;10.70;;;16.00;1.00;;;;;;4954130;29;20212;-63
2021/09/27 03:37:52;;;;;;;16.67;11.40;;;16.00;99.90;;;;;;4954351;29;20282;-63
2021/09/27 03:40:35;;;;;;;14.43;11.33;;;16.00;99.90;;;;;;4954724;29;20260;-63
2021/09/27 03:43:11;;;;;;;15.07;10.90;;;16.10;99.90;;;;;;4954726;29;20264;-63
2021/09/27 03:45:47;;;;;;;16.77;10.60;;;16.10;99.90;;;;;;4953912;28;20742;-64
2021/09/27 03:48:19;;;;;;;13.67;11.47;;;16.10;99.90;;;;;;4954642;29;20236;-63
2021/09/27 03:50:50;;;;;;;16.17;11.30;;;16.10;99.90;;;;;;4954583;29;20217;-63
2021/09/27 03:53:25;;;;;;;14.43;10.43;;;16.10;99.90;;;;;;4954407;29;20238;-63
2021/09/27 03:55:58;;;;;;;15.03;12.10;;;16.10;99.90;;;;;;4953973;29;20213;-63
2021/09/27 03:58:29;;;;;;;13.60;11.57;;;16.10;99.90;;;;;;4954026;29;20283;-63
2021/09/27 04:01:01;;;;;;;15.73;11.57;;;16.00;99.90;;;;;;4954185;29;20670;-63
2021/09/27 04:03:42;;;;;;;14.83;12.13;;;15.90;99.90;;;;;;4954168;29;20213;-63
2021/09/27 04:06:29;;;;;;;15.30;11.37;;;15.90;99.90;;;;;;4953937;29;20208;-63
2021/09/27 04:09:03;;;;;;;16.20;10.93;;;15.90;99.90;;;;;;4954231;29;20785;-63
2021/09/27 04:11:38;;;;;;;13.77;11.63;;;15.80;99.90;;;;;;4954059;29;20669;-63
2021/09/27 04:14:28;;;;;;;15.00;11.67;;;15.80;99.90;;;;;;4954122;29;20208;-63
2021/09/27 04:17:08;;;;;;;14.90;11.87;;;15.80;99.90;;;;;;4953553;29;20213;-63
2021/09/27 04:19:48;;;;;;;15.80;11.67;;;15.70;99.90;;;;;;4954147;29;20232;-63
2021/09/27 04:22:20;;;;;;;15.50;12.60;;;15.70;99.90;;;;;;4954086;29;20216;-62
2021/09/27 04:25:12;;;;;;;14.20;11.37;;;15.70;1.00;;;;;;4953679;29;20225;-63
2021/09/27 04:28:02;;;;;;;14.37;11.87;;;15.70;1.00;;;;;;4954031;29;20228;-62
2021/09/27 04:30:45;;;;;;;16.27;12.10;;;15.70;1.00;;;;;;4954020;29;20213;-62
2021/09/27 04:33:29;;;;;;;16.50;12.43;;;15.70;1.00;;;;;;4953877;29;20212;-63
2021/09/27 04:36:05;;;;;;;18.43;11.83;;;15.60;1.00;;;;;;4953576;29;20208;-62
2021/09/27 04:38:34;;;;;;;17.07;13.07;;;15.60;1.00;;;;;;4953894;29;20236;-62
2021/09/27 04:41:22;;;;;;;15.53;12.00;;;15.60;1.00;;;;;;4954004;29;20263;-62
2021/09/27 04:43:59;;;;;;;18.37;13.10;;;15.60;1.00;;;;;;4953674;29;20256;-62
2021/09/27 04:46:33;;;;;;;14.87;11.60;;;15.60;1.00;;;;;;4953368;29;20673;-63
2021/09/27 04:49:07;;;;;;;14.00;12.07;;;15.70;1.00;;;;;;4953838;29;20232;-63
2021/09/27 04:51:47;;;;;;;17.63;12.10;;;15.70;1.00;;;;;;4953888;29;20216;-62
2021/09/27 04:54:43;;;;;;;14.63;11.83;;;15.70;1.00;;;;;;4953690;29;20204;-62
2021/09/27 04:57:25;;;;;;;15.57;12.63;;;15.80;1.00;;;;;;4956260;28;20205;-62
2021/09/27 05:00:04;;;;;;;14.87;12.50;;;15.80;1.00;;;;;;4957615;29;20213;-62
2021/09/27 05:02:44;;;;;;;15.93;12.40;;;15.80;1.00;;;;;;4957474;29;20268;-62
2021/09/27 05:05:22;;;;;;;12.83;10.50;;;15.80;1.00;;;;;;4957169;29;20232;-62
2021/09/27 05:08:04;;;;;;;13.10;10.37;;;15.90;1.00;;;;;;4957439;29;20279;-62
2021/09/27 05:10:54;;;;;;;14.60;11.27;;;15.90;1.00;;;;;;4957586;29;20213;-62
2021/09/27 05:13:44;;;;;;;14.50;11.23;;;15.90;99.90;;;;;;4956984;29;20267;-62
2021/09/27 05:16:25;;;;;;;16.37;11.47;;;15.90;99.90;;;;;;4957006;29;20217;-62
2021/09/27 05:19:33;;;;;;;16.90;10.80;;;15.90;99.90;;;;;;4957097;29;20235;-62
2021/09/27 05:22:23;;;;;;;15.73;11.43;;;15.90;99.90;;;;;;4916678;29;20261;-62
2021/09/27 05:25:08;;;;;;;14.37;10.93;;;15.90;99.90;;;;;;4956713;29;20241;-62
2021/09/27 05:27:52;;;;;;;15.03;10.23;;;15.90;99.90;;;;;;4956897;29;20228;-62
2021/09/27 05:30:30;;;;;;;14.67;10.47;;;15.90;99.90;;;;;;4957000;29;20629;-62
2021/09/27 05:33:06;;;;;;;12.27;10.73;;;15.90;99.90;;;;;;4957184;29;20264;-63
2021/09/27 05:35:48;;;;;;;14.27;10.93;;;15.90;99.90;;;;;;4956464;29;20213;-63
2021/09/27 05:38:26;;;;;;;17.00;10.60;;;15.90;99.90;;;;;;4956735;29;20590;-62
2021/09/27 05:41:03;;;;;;;14.80;10.83;;;15.90;99.90;;;;;;4956904;29;20208;-63
2021/09/27 05:43:43;;;;;;;13.27;11.10;;;15.80;99.90;;;;;;4956771;29;20213;-63
2021/09/27 05:46:22;;;;;;;14.80;10.87;;;15.80;99.90;;;;;;4956536;29;20580;-63
2021/09/27 05:48:55;;;;;;;13.70;11.13;;;15.80;99.90;;;;;;4956629;29;20291;-63
2021/09/27 05:51:28;;;;;;;15.70;10.10;;;15.80;99.90;;;;;;4956989;29;20209;-63
2021/09/27 05:54:02;;;;;;;11.73;10.10;;;15.80;99.90;;;;;;4956686;29;20217;-63
2021/09/27 05:56:36;;;;;;;14.70;10.87;;;15.80;99.90;;;;;;4956270;29;20303;-63
2021/09/27 05:59:10;;;;;;;15.03;10.57;;;15.90;1.00;;;;;;4956312;29;20718;-62
2021/09/27 06:01:53;;;;;;;12.53;10.10;;;15.90;1.00;;;;;;4959055;28;20204;-63
2021/09/27 06:04:26;;;;;;;13.33;10.27;;;16.00;99.90;;;;;;4955142;29;20229;-63
2021/09/27 06:07:02;;;;;;;14.93;9.90;;;16.00;99.90;;;;;;4955568;28;20209;-63
2021/09/27 06:09:42;;;;;;;11.73;10.37;;;16.00;99.90;;;;;;4955367;29;20740;-63
2021/09/27 06:12:21;;;;;;;13.13;10.47;;;16.00;99.90;;;;;;4956246;29;20208;-63
2021/09/27 06:14:49;;;;;;;12.90;10.30;;;16.10;99.90;;;;;;4955823;29;20204;-63
2021/09/27 06:17:31;;;;;;;14.43;10.10;;;16.00;99.90;;;;;;4956002;29;20718;-63
2021/09/27 06:20:06;;;;;;;11.77;10.00;;;16.00;99.90;;;;;;4955845;29;20634;-62
2021/09/27 06:22:59;;;;;;;11.13;9.43;;;16.00;99.90;;;;;;4956248;29;20213;-63
2021/09/27 06:25:35;;;;;;;15.87;10.23;;;16.10;99.90;;;;;;4953993;29;20665;-63
2021/09/27 06:28:10;;;;;;;14.13;10.40;;;16.10;99.90;;;;;;4955768;29;20315;-63
2021/09/27 06:30:43;;;;;;;12.80;10.27;;;16.10;4.00;;;;;;4955940;29;20583;-62
2021/09/27 06:33:17;;;;;;;15.63;10.90;;;16.20;1.00;;;;;;4955584;29;20213;-63
2021/09/27 06:35:47;;;;;;;15.43;10.77;;;16.10;1.00;;;;;;4955539;29;20296;-63
2021/09/27 06:38:17;;;;;;;13.20;9.63;;;16.00;1.00;;;;;;4955564;29;20229;-64
2021/09/27 06:40:48;;;;;;;14.53;10.77;;;16.10;99.90;;;;;;4955426;29;20292;-64
2021/09/27 06:43:19;;;;;;;14.60;10.80;;;16.20;99.90;;;;;;4955541;29;20236;-64
2021/09/27 06:45:46;;;;;;;13.80;10.73;;;16.30;99.90;;;;;;4955209;29;20642;-64
2021/09/27 06:48:14;;;;;;;14.30;10.47;;;16.30;1.00;;;;;;4955435;29;20284;-64
2021/09/27 06:50:41;;;;;;;13.07;9.53;;;16.40;1.00;;;;;;4955316;29;20213;-64
2021/09/27 06:53:07;;;;;;;11.37;9.57;;;16.40;99.90;;;;;;4955235;29;20279;-64
2021/09/27 06:55:34;;;;;;;13.53;10.30;;;16.40;99.90;;;;;;4954725;29;20654;-64
2021/09/27 06:58:01;;;;;;;13.53;10.10;;;16.40;99.90;;;;;;4955221;29;20287;-64
2021/09/27 07:00:28;;;;;;;13.40;10.43;;;16.50;99.90;;;;;;4954970;29;20211;-64
2021/09/27 07:02:54;;;;;;;11.00;9.90;;;16.50;99.90;;;;;;4949087;29;20611;-64
2021/09/27 07:05:22;;;;;;;11.93;10.20;;;16.50;99.90;;;;;;4952279;29;20225;-64
2021/09/27 07:07:49;;;;;;;13.83;10.07;;;16.60;99.90;;;;;;4954691;29;20288;-64
2021/09/27 07:10:18;;;;;;;12.93;10.50;;;16.70;54.60;;;;;;4955269;29;20212;-64
2021/09/27 07:12:45;;;;;;;13.33;9.87;;;16.70;1.00;;;;;;4955089;29;20236;-64
2021/09/27 07:15:12;;;;;;;14.83;10.50;;;16.80;99.90;;;;;;4954663;29;20252;-64
2021/09/27 07:17:39;;;;;;;11.03;9.23;;;16.80;1.00;;;;;;4950329;28;20275;-64
2021/09/27 07:20:08;;;;;;;12.40;9.53;;;16.80;99.90;;;;;;4952829;28;20227;-64
2021/09/27 07:22:36;;;;;;;12.53;10.10;;;16.80;1.00;;;;;;4954609;29;20219;-64
2021/09/27 07:25:04;;;;;;;12.87;9.90;;;16.90;1.00;;;;;;4954022;29;20283;-64
2021/09/27 07:27:30;;;;;;;12.60;9.43;;;16.90;99.90;;;;;;4954520;29;20780;-64
2021/09/27 07:29:57;;;;;;;13.03;9.87;;;17.00;1.00;;;;;;4954056;29;20272;-64
2021/09/27 07:32:24;;;;;;;11.50;8.97;;;17.10;75.10;;;;;;4954488;29;20209;-63
2021/09/27 07:34:50;;;;;;;12.60;9.93;;;17.20;1.00;;;;;;4953669;29;20220;-62
2021/09/27 07:37:17;;;;;;;12.13;8.87;;;17.30;99.90;;;;;;4953595;29;20237;-63
2021/09/27 07:39:46;;;;;;;10.97;9.27;;;17.50;1.00;;;;;;4953666;29;20217;-64
2021/09/27 07:42:13;;;;;;;10.37;9.27;;;17.60;99.90;;;;;;4954275;29;20267;-66
2021/09/27 07:44:39;;;;;;;9.93;8.40;;;17.70;1.00;;;;;;4953687;29;20229;-66
2021/09/27 07:47:07;;;;;;;10.83;8.67;;;17.80;99.90;;;;;;4953951;29;20213;-65
2021/09/27 07:49:33;;;;;;;10.77;9.00;;;17.90;99.90;;;;;;4953551;29;20308;-66
2021/09/27 07:52:00;;;;;;;11.40;8.53;;;18.00;99.90;;;;;;4953574;29;20257;-65
2021/09/27 07:54:27;;;;;;;10.57;8.33;;;18.10;99.90;;;;;;4952594;29;20650;-64
2021/09/27 07:56:55;;;;;;;10.37;8.27;;;18.10;1.00;;;;;;4953867;29;20252;-65
2021/09/27 07:59:22;;;;;;;11.03;9.00;;;18.10;99.90;;;;;;4944237;29;20635;-67
2021/09/27 08:01:49;;;;;;;11.63;9.17;;;18.10;99.90;;;;;;4934217;29;20217;-66
2021/09/27 08:04:17;;;;;;;11.00;9.03;;;18.10;1.00;;;;;;4934898;29;20210;-67
2021/09/27 08:06:44;;;;;;;12.57;8.93;;;18.10;38.30;;;;;;4934511;29;20316;-67
2021/09/27 08:09:12;;;;;;;10.77;9.10;;;18.10;1.00;;;;;;4934244;29;20744;-67
2021/09/27 08:11:42;;;;;;;13.60;9.27;;;18.00;18.90;;;;;;4934247;29;20787;-67
2021/09/27 08:14:10;;;;;;;11.80;9.10;;;18.00;99.90;;;;;;4934661;29;20209;-68
2021/09/27 08:16:37;;;;;;;37.87;11.37;;;18.10;99.90;;;;;;4933865;29;20585;-69
2021/09/27 08:19:05;;;;;;;9.87;8.57;;;18.20;1.00;;;;;;4933649;29;20717;-71
2021/09/27 08:21:32;;;;;;;10.63;8.53;;;18.30;99.90;;;;;;4934642;29;20225;-66
2021/09/27 08:23:59;;;;;;;9.77;8.57;;;18.30;35.30;;;;;;4934503;29;20217;-65
2021/09/27 08:26:25;;;;;;;10.37;8.43;;;18.30;1.00;;;;;;4934254;29;20229;-66
2021/09/27 08:28:52;;;;;;;10.80;8.93;;;18.20;99.90;;;;;;4933945;29;20225;-69
2021/09/27 08:31:22;;;;;;;9.23;8.27;;;18.20;99.90;;;;;;4933657;29;20217;-66
2021/09/27 08:33:51;;;;;;;9.77;8.17;;;18.40;99.90;;;;;;4934393;29;20221;-64
2021/09/27 08:36:20;;;;;;;10.83;8.23;;;18.60;15.90;;;;;;4934099;29;20206;-64
2021/09/27 08:38:47;;;;;;;10.10;7.63;;;18.90;1.00;;;;;;4933456;29;20241;-64
2021/09/27 08:41:22;;;;;;;8.73;7.47;;;19.10;1.00;;;;;;4934426;29;20610;-65
2021/09/27 08:43:59;;;;;;;8.20;6.97;;;19.30;1.00;;;;;;4933976;29;20216;-67
2021/09/27 08:46:32;;;;;;;9.70;7.67;;;19.30;99.90;;;;;;4933760;29;20237;-65
2021/09/27 08:49:13;;;;;;;12.97;7.90;;;19.40;99.90;;;;;;4934025;29;20233;-67
2021/09/27 08:51:40;;;;;;;9.20;7.30;;;19.50;99.90;;;;;;4934195;29;20209;-66
2021/09/27 08:54:13;;;;;;;8.43;7.50;;;19.40;99.90;;;;;;4934232;29;20221;-66
2021/09/27 08:56:46;;;;;;;10.43;6.77;;;19.30;99.90;;;;;;4933900;29;20217;-66
2021/09/27 08:59:20;;;;;;;7.60;6.73;;;19.20;99.90;;;;;;4933947;29;20230;-65
2021/09/27 09:01:55;;;;;;;7.83;6.03;;;19.10;99.90;;;;;;4934331;29;20213;-67
2021/09/27 09:04:29;;;;;;;24.90;7.13;;;19.30;99.90;;;;;;4934012;29;20205;-65
2021/09/27 09:07:03;;;;;;;7.63;5.57;;;19.50;99.90;;;;;;4934079;29;20233;-65
2021/09/27 09:09:37;;;;;;;13.63;5.63;;;19.60;91.90;;;;;;4933982;29;20356;-65
2021/09/27 09:12:09;;;;;;;9.03;5.57;;;19.70;51.70;;;;;;4934532;29;20209;-65
2021/09/27 09:14:42;;;;;;;6.70;5.70;;;19.80;48.00;;;;;;4933788;29;20216;-65
2021/09/27 09:17:18;;;;;;;6.03;5.27;;;19.80;10.90;;;;;;4934261;29;20210;-65
2021/09/27 09:19:46;;;;;;;6.53;5.10;;;19.90;1.00;;;;;;4934029;29;20268;-65
2021/09/27 09:22:21;;;;;;;11.13;6.07;;;20.00;1.00;;;;;;4933161;29;20631;-64
2021/09/27 09:24:48;;;;;;;6.20;5.57;;;20.20;17.10;;;;;;4932283;29;20867;-63
2021/09/27 09:27:15;;;;;;;5.70;5.10;;;20.30;1.00;;;;;;4932654;29;20240;-64
2021/09/27 09:29:44;;;;;;;9.53;5.37;;;20.50;1.00;;;;;;4933403;29;20364;-64
2021/09/27 09:32:17;;;;;;;8.33;5.50;;;20.60;1.00;;;;;;4934096;29;20214;-64
2021/09/27 09:34:44;;;;;;;9.37;5.00;;;20.60;1.00;;;;;;4932822;29;20281;-64
2021/09/27 09:37:15;;;;;;;9.50;5.23;;;20.70;1.00;;;;;;4933952;29;20228;-64
2021/09/27 09:39:55;;;;;;;16.90;4.87;;;20.80;1.00;;;;;;4933422;29;20209;-64
2021/09/27 09:42:30;;;;;;;5.77;4.87;;;20.90;1.00;;;;;;4935385;29;20262;-64
2021/09/27 09:45:09;;;;;;;6.30;4.63;;;20.90;1.00;;;;;;4936963;29;20213;-64
2021/09/27 09:47:37;;;;;;;6.77;4.20;;;20.90;1.00;;;;;;4937233;29;20236;-64
2021/09/27 09:50:07;;;;;;;5.90;4.70;;;20.80;1.00;;;;;;4936834;29;20217;-64
2021/09/27 09:52:38;;;;;;;7.20;3.83;;;20.70;1.00;;;;;;4937133;29;20692;-64
2021/09/27 09:55:17;;;;;;;6.53;4.50;;;20.60;1.00;;;;;;4936719;29;20698;-64
2021/09/27 09:57:46;;;;;;;6.23;4.47;;;20.60;1.00;;;;;;4936679;29;20241;-64
2021/09/27 10:00:20;;;;;;;5.37;3.83;;;20.70;1.00;;;;;;4936690;29;20213;-64
2021/09/27 10:02:53;;;;;;;6.73;4.53;;;20.60;1.00;;;;;;4936614;29;20219;-64
2021/09/27 10:05:25;;;;;;;6.60;4.60;;;20.60;1.00;;;;;;4936577;29;20217;-64
2021/09/27 10:07:55;;;;;;;6.10;3.83;;;20.50;1.00;;;;;;4936564;29;20612;-67
2021/09/27 10:10:34;;;;;;;6.00;4.60;;;20.60;1.00;;;;;;4936604;29;20297;-65
2021/09/27 10:13:02;;;;;;;6.67;4.60;;;20.60;1.00;;;;;;4936856;29;20213;-65
2021/09/27 10:15:46;;;;;;;5.90;4.43;;;20.70;1.00;;;;;;4936072;29;20205;-65
2021/09/27 10:18:23;;;;;;;5.07;4.00;;;20.80;1.00;;;;;;4936553;29;20229;-65
2021/09/27 10:21:22;;;;;;;5.60;4.10;;;20.80;1.00;;;;;;4936383;29;20600;-65
2021/09/27 10:23:52;;;;;;;5.57;3.30;;;20.90;1.00;;;;;;4936470;29;20217;-65
2021/09/27 10:26:26;;;;;;;4.37;3.80;;;20.90;1.00;;;;;;4936015;29;20230;-65
2021/09/27 10:28:55;;;;;;;6.53;3.80;;;20.80;1.00;;;;;;4936160;29;20283;-65
2021/09/27 10:31:25;;;;;;;5.40;3.33;;;20.90;1.00;;;;;;4936374;29;20217;-65
2021/09/27 10:33:57;;;;;;;4.57;3.30;;;20.90;1.00;;;;;;4936428;29;20213;-65
2021/09/27 10:36:31;;;;;;;4.47;3.13;;;20.90;1.00;;;;;;4935770;29;20209;-65
2021/09/27 10:38:59;;;;;;;5.93;3.67;;;20.90;1.00;;;;;;4935890;29;20367;-65
2021/09/27 10:41:30;;;;;;;6.03;3.47;;;20.90;1.00;;;;;;4936120;29;20691;-64
2021/09/27 10:44:00;;;;;;;4.67;3.60;;;20.90;1.00;;;;;;4936192;29;20213;-65
2021/09/27 10:46:32;;;;;;;3.13;2.83;;;21.00;1.00;;;;;;4935648;29;20225;-64
2021/09/27 10:49:02;;;;;;;6.03;3.47;;;21.20;1.00;;;;;;4935881;29;20241;-64
2021/09/27 10:51:34;;;;;;;3.67;3.10;;;21.10;1.00;;;;;;4936417;29;20213;-64
2021/09/27 10:54:04;;;;;;;4.40;3.33;;;21.10;1.00;;;;;;4935460;29;20858;-64
2021/09/27 10:56:37;;;;;;;7.20;3.60;;;21.10;1.00;;;;;;4935462;29;20213;-64
2021/09/27 10:59:07;;;;;;;4.83;3.33;;;21.00;1.00;;;;;;4935392;29;20234;-65
2021/09/27 11:01:41;;;;;;;4.60;3.23;;;21.10;1.00;;;;;;4935691;29;20699;-65
2021/09/27 11:04:13;;;;;;;4.73;3.47;;;21.00;1.00;;;;;;4935967;29;20204;-64
2021/09/27 11:06:45;;;;;;;4.10;3.23;;;20.90;1.00;;;;;;4935146;29;20721;-67
2021/09/27 11:09:17;;;;;;;4.90;3.70;;;20.90;1.00;;;;;;4935344;29;20300;-64
2021/09/27 11:11:54;;;;;;;4.30;3.47;;;20.70;1.00;;;;;;4936113;29;20218;-64
2021/09/27 11:14:26;;;;;;;4.70;3.33;;;20.80;1.00;;;;;;4936325;29;20300;-64
2021/09/27 11:17:16;;;;;;;6.77;3.90;;;20.80;1.00;;;;;;4935317;29;20241;-66
2021/09/27 11:19:45;;;;;;;6.10;3.40;;;20.70;1.00;;;;;;4928302;29;20241;-66
2021/09/27 11:22:37;;;;;;;5.87;3.53;;;20.70;1.00;;;;;;4935402;29;20221;-65
2021/09/27 11:25:33;;;;;;;4.63;3.70;;;20.60;1.00;;;;;;4932946;29;20213;-65
2021/09/27 11:28:13;;;;;;;4.30;3.90;;;20.30;1.00;;;;;;4935093;29;20229;-64
2021/09/27 11:30:44;;;;;;;4.20;3.50;;;20.40;1.00;;;;;;4935221;29;20742;-68
2021/09/27 11:33:46;;;;;;;4.37;3.70;;;20.40;1.00;;;;;;4935592;29;20222;-68
2021/09/27 11:37:06;;;;;;;5.10;3.60;;;20.40;1.00;;;;;;4934749;29;20205;-63
2021/09/27 11:39:40;;;;;;;5.20;3.67;;;20.40;1.00;;;;;;4911038;29;20210;-63
2021/09/27 11:42:26;;;;;;;4.10;3.63;;;20.50;1.00;;;;;;4934413;29;20210;-67
2021/09/27 11:44:56;;;;;;;4.83;3.70;;;20.60;1.00;;;;;;4914413;29;20210;-66
2021/09/27 11:47:47;;;;;;;4.97;3.73;;;20.60;1.00;;;;;;4935918;29;20245;-68
2021/09/27 11:51:01;;;;;;;5.33;3.47;;;20.60;1.00;;;;;;4935489;29;20690;-64
2021/09/27 11:53:40;;;;;;;7.27;3.30;;;20.60;1.00;;;;;;4935225;29;20209;-67
2021/09/27 11:56:13;;;;;;;4.43;3.67;;;20.50;1.00;;;;;;4934266;29;20209;-67
2021/09/27 11:58:44;;;;;;;4.90;3.37;;;20.30;1.00;;;;;;4933702;29;20578;-68
2021/09/27 12:01:19;;;;;;;5.47;3.50;;;20.40;1.00;;;;;;4934997;29;20218;-66
2021/09/27 12:03:55;;;;;;;7.37;3.50;;;20.50;1.00;;;;;;4934669;29;20209;-66
2021/09/27 12:06:25;;;;;;;5.03;3.00;;;20.60;1.00;;;;;;4933579;29;20725;-66
2021/09/27 12:08:57;;;;;;;13.83;9.83;;;20.70;1.00;;;;;;4934235;29;20718;-66
2021/09/27 12:11:23;;;;;;;5.30;3.60;;;20.70;1.00;;;;;;4934766;29;20213;-66
2021/09/27 12:13:55;;;;;;;4.17;3.17;;;20.80;1.00;;;;;;4934670;29;20206;-67
2021/09/27 12:16:25;;;;;;;4.60;3.17;;;20.80;1.00;;;;;;4934491;29;20565;-67
2021/09/27 12:18:55;;;;;;;3.80;3.07;;;20.70;1.00;;;;;;4934137;29;20722;-66
2021/09/27 12:21:25;;;;;;;5.33;3.23;;;20.80;1.00;;;;;;4934841;29;20647;-67
2021/09/27 12:23:55;;;;;;;4.17;2.87;;;20.90;1.00;;;;;;4934366;29;20272;-66
2021/09/27 12:26:27;;;;;;;4.87;2.97;;;21.00;1.00;;;;;;4933523;29;20229;-68
2021/09/27 12:29:03;;;;;;;7.40;3.10;;;21.00;1.00;;;;;;4934509;29;20714;-67
2021/09/27 12:31:30;;;;;;;5.33;3.00;;;21.00;1.00;;;;;;4934785;29;20216;-68
2021/09/27 12:34:08;;;;;;;7.03;2.83;;;21.10;1.00;;;;;;4933654;29;20730;-67
2021/09/27 12:36:36;;;;;;;4.80;3.20;;;21.20;1.00;;;;;;4933273;29;20213;-69
2021/09/27 12:39:07;;;;;;;3.77;3.00;;;21.30;1.00;;;;;;4933057;29;20233;-68
2021/09/27 12:41:34;;;;;;;4.33;3.07;;;21.20;1.00;;;;;;4933877;29;20244;-67
2021/09/27 12:44:07;;;;;;;4.10;2.70;;;21.10;1.00;;;;;;4933977;29;20296;-67
2021/09/27 12:46:34;;;;;;;4.57;3.00;;;21.00;1.00;;;;;;4933511;29;20229;-64
2021/09/27 12:49:03;;;;;;;4.57;3.23;;;21.10;1.00;;;;;;4934021;29;20233;-64
2021/09/27 12:51:33;;;;;;;4.37;3.00;;;20.80;1.00;;;;;;4934195;29;20222;-64
2021/09/27 12:54:05;;;;;;;4.00;2.50;;;20.80;1.00;;;;;;4934611;29;20706;-64
2021/09/27 12:56:34;;;;;;;6.03;2.90;;;20.70;1.00;;;;;;4933827;29;20683;-64
2021/09/27 12:59:04;;;;;;;4.23;2.50;;;20.70;1.00;;;;;;4933672;29;20229;-64
2021/09/27 13:01:32;;;;;;;4.67;2.70;;;20.60;1.00;;;;;;4934411;29;20209;-64
2021/09/27 13:04:05;;;;;;;4.80;2.67;;;20.60;1.00;;;;;;4934011;29;20312;-64
2021/09/27 13:06:36;;;;;;;3.17;2.43;;;20.60;1.00;;;;;;4934228;29;20277;-65
2021/09/27 13:09:12;;;;;;;7.47;2.43;;;20.70;1.00;;;;;;4933926;29;20230;-66
2021/09/27 13:11:43;;;;;;;3.90;2.20;;;20.60;1.00;;;;;;4934202;29;20717;-64
2021/09/27 13:14:17;;;;;;;3.43;2.50;;;20.50;1.00;;;;;;4934237;29;20218;-65
2021/09/27 13:16:46;;;;;;;3.00;2.40;;;20.50;1.00;;;;;;4933996;29;20213;-66